FCN587 KBHM-MNMG
Flight info
| Callsign | FCN587 |
|---|---|
| Flight time | 3h 7m |
| Altitude | 36000 |
| Route | DAYVS DCT SJI DCT VIPER DCT DAGGR/N0458F370 DCT IRDOV UL214 CUN/N0462F360 UB881 LIDEK/N0457F380 UB881 ANIKO/N0460F370 UB881 BTO/N0458F380 UA754 TNT UA502 LIBIS/N0461F370 UA502 MGA |
| Aircraft | A320/M-SDE3FGHIRWY/LB1 |
Departure
| Time | 2026-05-06 21:59 |
|---|---|
| Airport | Birmingham-Shuttlesworth International Airport (KBHM) |
Arrival
| Time | 2026-05-07 01:06 |
|---|---|
| Airport | Augusto C. Sandino (Managua) International Airport (MNMG) |
| Time | Latitude | Longitude | Altitude | Speed | Heading |
|---|---|---|---|---|---|
| 2026-05-06 21:35 | 33.56297 | -86.75178 | 634 ft | 0 kts | 144° |
| 2026-05-06 21:46 | 33.56316 | -86.75196 | 633 ft | 4 kts | 135° |
| 2026-05-06 21:46 | 33.56333 | -86.75220 | 631 ft | 4 kts | 120° |
| 2026-05-06 21:46 | 33.56344 | -86.75249 | 636 ft | 4 kts | 102° |
| 2026-05-06 21:46 | 33.56345 | -86.75280 | 630 ft | 4 kts | 72° |
| 2026-05-06 21:47 | 33.56339 | -86.75299 | 631 ft | 4 kts | 30° |
| 2026-05-06 21:47 | 33.56333 | -86.75305 | 637 ft | 0 kts | 55° |
| 2026-05-06 21:50 | 33.56334 | -86.75304 | 633 ft | 0 kts | 54° |
| 2026-05-06 21:50 | 33.56339 | -86.75295 | 627 ft | 2 kts | 55° |
| 2026-05-06 21:50 | 33.56351 | -86.75273 | 637 ft | 4 kts | 58° |
| 2026-05-06 21:51 | 33.56373 | -86.75233 | 624 ft | 7 kts | 56° |
| 2026-05-06 21:51 | 33.56398 | -86.75188 | 634 ft | 5 kts | 56° |
| 2026-05-06 21:51 | 33.56414 | -86.75160 | 629 ft | 3 kts | 56° |
| 2026-05-06 21:51 | 33.56422 | -86.75145 | 631 ft | 2 kts | 56° |
| 2026-05-06 21:52 | 33.56438 | -86.75127 | 626 ft | 8 kts | 28° |
| 2026-05-06 21:52 | 33.56492 | -86.75146 | 630 ft | 7 kts | 333° |
| 2026-05-06 21:52 | 33.56526 | -86.75134 | 630 ft | 4 kts | 40° |
| 2026-05-06 21:52 | 33.56542 | -86.75110 | 630 ft | 5 kts | 52° |
| 2026-05-06 21:53 | 33.56586 | -86.75031 | 630 ft | 13 kts | 62° |
| 2026-05-06 21:53 | 33.56603 | -86.74937 | 629 ft | 10 kts | 89° |
| 2026-05-06 21:53 | 33.56607 | -86.74865 | 630 ft | 7 kts | 74° |
| 2026-05-06 21:53 | 33.56624 | -86.74825 | 633 ft | 4 kts | 58° |
| 2026-05-06 21:54 | 33.56668 | -86.74747 | 632 ft | 17 kts | 55° |
| 2026-05-06 21:54 | 33.56732 | -86.74635 | 638 ft | 15 kts | 55° |
| 2026-05-06 21:54 | 33.56787 | -86.74543 | 637 ft | 12 kts | 54° |
| 2026-05-06 21:54 | 33.56831 | -86.74465 | 636 ft | 11 kts | 60° |
| 2026-05-06 21:55 | 33.56874 | -86.74390 | 636 ft | 11 kts | 54° |
| 2026-05-06 21:55 | 33.56916 | -86.74318 | 636 ft | 10 kts | 56° |
| 2026-05-06 21:55 | 33.56949 | -86.74258 | 635 ft | 8 kts | 56° |
| 2026-05-06 21:55 | 33.56978 | -86.74208 | 636 ft | 11 kts | 56° |
| 2026-05-06 21:56 | 33.57025 | -86.74125 | 638 ft | 12 kts | 55° |
| 2026-05-06 21:56 | 33.57070 | -86.74049 | 633 ft | 10 kts | 54° |
| 2026-05-06 21:56 | 33.57104 | -86.73992 | 638 ft | 6 kts | 55° |
| 2026-05-06 21:56 | 33.57128 | -86.73949 | 636 ft | 10 kts | 56° |
| 2026-05-06 21:57 | 33.57163 | -86.73888 | 640 ft | 8 kts | 56° |
| 2026-05-06 21:57 | 33.57192 | -86.73845 | 640 ft | 8 kts | 39° |
| 2026-05-06 21:57 | 33.57284 | -86.73873 | 641 ft | 13 kts | 323° |
| 2026-05-06 21:57 | 33.57322 | -86.73955 | 640 ft | 11 kts | 271° |
| 2026-05-06 21:58 | 33.57282 | -86.74035 | 640 ft | 13 kts | 234° |
| 2026-05-06 21:58 | 33.57217 | -86.74145 | 639 ft | 30 kts | 234° |
| 2026-05-06 21:58 | 33.56960 | -86.74588 | 638 ft | 97 kts | 235° |
| 2026-05-06 21:58 | 33.56468 | -86.75434 | 635 ft | 148 kts | 235° |
| 2026-05-06 21:59 | 33.55829 | -86.76571 | 952 ft | 167 kts | 232° |
| 2026-05-06 21:59 | 33.55174 | -86.77711 | 1514 ft | 171 kts | 236° |
| 2026-05-06 21:59 | 33.54499 | -86.78869 | 2277 ft | 166 kts | 234° |
| 2026-05-06 21:59 | 33.53754 | -86.79991 | 2715 ft | 184 kts | 229° |
| 2026-05-06 22:00 | 33.52843 | -86.81184 | 3069 ft | 204 kts | 227° |
| 2026-05-06 22:00 | 33.51797 | -86.82482 | 3370 ft | 229 kts | 227° |
| 2026-05-06 22:00 | 33.50678 | -86.83930 | 3981 ft | 242 kts | 228° |
| 2026-05-06 22:00 | 33.49542 | -86.85439 | 4853 ft | 245 kts | 230° |
| 2026-05-06 22:01 | 33.48407 | -86.86964 | 5749 ft | 247 kts | 230° |
| 2026-05-06 22:01 | 33.47258 | -86.88512 | 6601 ft | 250 kts | 230° |
| 2026-05-06 22:01 | 33.46097 | -86.90071 | 7423 ft | 252 kts | 230° |
| 2026-05-06 22:01 | 33.44934 | -86.91631 | 8188 ft | 256 kts | 230° |
| 2026-05-06 22:02 | 33.43745 | -86.93226 | 9021 ft | 258 kts | 230° |
| 2026-05-06 22:02 | 33.42543 | -86.94832 | 9882 ft | 260 kts | 231° |
| 2026-05-06 22:02 | 33.41314 | -86.96469 | 10428 ft | 273 kts | 231° |
| 2026-05-06 22:02 | 33.39995 | -86.98229 | 10655 ft | 296 kts | 231° |
| 2026-05-06 22:03 | 33.38563 | -87.00139 | 10823 ft | 319 kts | 231° |
| 2026-05-06 22:03 | 33.37050 | -87.02158 | 11252 ft | 330 kts | 231° |
| 2026-05-06 22:03 | 33.35509 | -87.04211 | 11901 ft | 334 kts | 231° |
| 2026-05-06 22:03 | 33.33948 | -87.06287 | 12584 ft | 337 kts | 231° |
| 2026-05-06 22:04 | 33.32370 | -87.08380 | 13245 ft | 340 kts | 231° |
| 2026-05-06 22:04 | 33.30780 | -87.10485 | 13895 ft | 343 kts | 231° |
| 2026-05-06 22:04 | 33.29172 | -87.12613 | 14462 ft | 346 kts | 231° |
| 2026-05-06 22:04 | 33.27559 | -87.14751 | 15034 ft | 348 kts | 231° |
| 2026-05-06 22:05 | 33.25930 | -87.16911 | 15608 ft | 350 kts | 232° |
| 2026-05-06 22:05 | 33.24253 | -87.18990 | 16145 ft | 355 kts | 225° |
| 2026-05-06 22:05 | 33.22172 | -87.20725 | 16756 ft | 366 kts | 214° |
| 2026-05-06 22:05 | 33.19806 | -87.21957 | 17474 ft | 375 kts | 208° |
| 2026-05-06 22:06 | 33.17401 | -87.23090 | 18162 ft | 378 kts | 208° |
| 2026-05-06 22:06 | 33.14950 | -87.24246 | 18666 ft | 380 kts | 208° |
| 2026-05-06 22:06 | 33.12484 | -87.25414 | 19083 ft | 383 kts | 208° |
| 2026-05-06 22:06 | 33.10000 | -87.26595 | 19457 ft | 387 kts | 208° |
| 2026-05-06 22:07 | 33.07486 | -87.27792 | 19867 ft | 390 kts | 208° |
| 2026-05-06 22:07 | 33.04956 | -87.28991 | 20398 ft | 393 kts | 209° |
| 2026-05-06 22:07 | 33.02404 | -87.30198 | 20842 ft | 395 kts | 209° |
| 2026-05-06 22:07 | 32.99839 | -87.31408 | 21285 ft | 398 kts | 209° |
| 2026-05-06 22:08 | 32.97261 | -87.32625 | 21715 ft | 400 kts | 209° |
| 2026-05-06 22:08 | 32.94672 | -87.33846 | 22167 ft | 401 kts | 209° |
| 2026-05-06 22:08 | 32.92071 | -87.35068 | 22670 ft | 401 kts | 209° |
| 2026-05-06 22:08 | 32.89473 | -87.36289 | 23111 ft | 403 kts | 209° |
| 2026-05-06 22:09 | 32.86897 | -87.37502 | 23508 ft | 405 kts | 209° |
| 2026-05-06 22:09 | 32.84266 | -87.38744 | 23762 ft | 409 kts | 209° |
| 2026-05-06 22:09 | 32.81609 | -87.40001 | 24004 ft | 413 kts | 208° |
| 2026-05-06 22:09 | 32.78926 | -87.41269 | 24307 ft | 416 kts | 208° |
| 2026-05-06 22:10 | 32.76233 | -87.42535 | 24618 ft | 418 kts | 208° |
| 2026-05-06 22:10 | 32.73520 | -87.43807 | 24936 ft | 420 kts | 208° |
| 2026-05-06 22:10 | 32.70801 | -87.45082 | 25252 ft | 422 kts | 208° |
| 2026-05-06 22:10 | 32.68060 | -87.46364 | 25567 ft | 424 kts | 208° |
| 2026-05-06 22:11 | 32.65303 | -87.47653 | 25873 ft | 426 kts | 208° |
| 2026-05-06 22:11 | 32.62537 | -87.48946 | 26173 ft | 428 kts | 208° |
| 2026-05-06 22:11 | 32.59761 | -87.50246 | 26462 ft | 430 kts | 208° |
| 2026-05-06 22:11 | 32.56974 | -87.51552 | 26724 ft | 432 kts | 208° |
| 2026-05-06 22:12 | 32.54214 | -87.52845 | 26991 ft | 434 kts | 208° |
| 2026-05-06 22:12 | 32.51394 | -87.54163 | 27262 ft | 436 kts | 208° |
| 2026-05-06 22:12 | 32.48569 | -87.55481 | 27531 ft | 438 kts | 208° |
| 2026-05-06 22:12 | 32.45723 | -87.56808 | 27805 ft | 440 kts | 208° |
| 2026-05-06 22:13 | 32.42877 | -87.58136 | 28069 ft | 442 kts | 208° |
| 2026-05-06 22:13 | 32.40012 | -87.59469 | 28386 ft | 442 kts | 208° |
| 2026-05-06 22:13 | 32.37154 | -87.60796 | 28780 ft | 441 kts | 208° |
| 2026-05-06 22:13 | 32.34304 | -87.62117 | 29170 ft | 440 kts | 208° |
| 2026-05-06 22:14 | 32.31465 | -87.63435 | 29529 ft | 439 kts | 209° |
| 2026-05-06 22:14 | 32.28619 | -87.64755 | 29889 ft | 438 kts | 209° |
| 2026-05-06 22:14 | 32.25818 | -87.66052 | 30215 ft | 438 kts | 209° |
| 2026-05-06 22:14 | 32.22992 | -87.67366 | 30536 ft | 437 kts | 209° |
| 2026-05-06 22:15 | 32.20165 | -87.68683 | 30849 ft | 436 kts | 209° |
| 2026-05-06 22:15 | 32.17352 | -87.69992 | 31160 ft | 435 kts | 209° |
| 2026-05-06 22:15 | 32.14530 | -87.71299 | 31483 ft | 435 kts | 208° |
| 2026-05-06 22:15 | 32.11717 | -87.72595 | 31825 ft | 433 kts | 208° |
| 2026-05-06 22:16 | 32.08909 | -87.73885 | 32162 ft | 432 kts | 208° |
| 2026-05-06 22:16 | 32.06115 | -87.75170 | 32482 ft | 431 kts | 208° |
| 2026-05-06 22:16 | 32.03317 | -87.76464 | 32716 ft | 432 kts | 208° |
| 2026-05-06 22:16 | 32.00516 | -87.77762 | 32970 ft | 433 kts | 208° |
| 2026-05-06 22:17 | 31.97711 | -87.79064 | 33251 ft | 433 kts | 208° |
| 2026-05-06 22:17 | 31.94952 | -87.80342 | 33561 ft | 433 kts | 208° |
| 2026-05-06 22:17 | 31.92150 | -87.81634 | 33881 ft | 432 kts | 208° |
| 2026-05-06 22:17 | 31.89355 | -87.82920 | 34168 ft | 431 kts | 208° |
| 2026-05-06 22:18 | 31.86560 | -87.84202 | 34453 ft | 430 kts | 208° |
| 2026-05-06 22:18 | 31.83775 | -87.85479 | 34738 ft | 429 kts | 208° |
| 2026-05-06 22:18 | 31.81000 | -87.86749 | 35027 ft | 428 kts | 208° |
| 2026-05-06 22:18 | 31.78226 | -87.88018 | 35306 ft | 427 kts | 208° |
| 2026-05-06 22:19 | 31.75455 | -87.89287 | 35507 ft | 427 kts | 208° |
| 2026-05-06 22:19 | 31.72688 | -87.90558 | 35722 ft | 427 kts | 209° |
| 2026-05-06 22:19 | 31.69911 | -87.91834 | 35917 ft | 428 kts | 209° |
| 2026-05-06 22:19 | 31.67141 | -87.93108 | 35970 ft | 430 kts | 209° |
| 2026-05-06 22:20 | 31.61597 | -87.95657 | 35977 ft | 431 kts | 209° |
| 2026-05-06 22:20 | 31.56013 | -87.98203 | 35978 ft | 431 kts | 208° |
| 2026-05-06 22:21 | 31.50413 | -88.00748 | 35957 ft | 431 kts | 209° |
| 2026-05-06 22:21 | 31.44825 | -88.03299 | 35983 ft | 432 kts | 210° |
| 2026-05-06 22:22 | 31.39251 | -88.05836 | 35986 ft | 432 kts | 210° |
| 2026-05-06 22:22 | 31.33648 | -88.08380 | 35987 ft | 432 kts | 210° |
| 2026-05-06 22:23 | 31.28046 | -88.10928 | 35972 ft | 432 kts | 209° |
| 2026-05-06 22:23 | 31.22430 | -88.13476 | 35956 ft | 432 kts | 210° |
| 2026-05-06 22:24 | 31.16834 | -88.16019 | 35985 ft | 431 kts | 210° |
| 2026-05-06 22:24 | 31.11234 | -88.18550 | 35993 ft | 431 kts | 210° |
| 2026-05-06 22:25 | 31.05644 | -88.21062 | 36004 ft | 431 kts | 210° |
| 2026-05-06 22:25 | 31.00098 | -88.23561 | 36004 ft | 430 kts | 210° |
| 2026-05-06 22:26 | 30.94511 | -88.26077 | 35984 ft | 430 kts | 210° |
| 2026-05-06 22:26 | 30.88933 | -88.28593 | 35983 ft | 430 kts | 210° |
| 2026-05-06 22:27 | 30.83348 | -88.31106 | 35994 ft | 430 kts | 210° |
| 2026-05-06 22:27 | 30.77762 | -88.33611 | 36002 ft | 430 kts | 210° |
| 2026-05-06 22:28 | 30.72113 | -88.35994 | 36003 ft | 438 kts | 203° |
| 2026-05-06 22:28 | 30.66112 | -88.37358 | 36003 ft | 443 kts | 200° |
| 2026-05-06 22:29 | 30.60046 | -88.38661 | 36006 ft | 443 kts | 200° |
| 2026-05-06 22:29 | 30.53977 | -88.39973 | 35999 ft | 443 kts | 200° |
| 2026-05-06 22:30 | 30.47915 | -88.41289 | 36000 ft | 443 kts | 200° |
| 2026-05-06 22:30 | 30.41848 | -88.42610 | 36001 ft | 444 kts | 200° |
| 2026-05-06 22:31 | 30.35778 | -88.43918 | 35981 ft | 444 kts | 200° |
| 2026-05-06 22:31 | 30.29751 | -88.45215 | 35988 ft | 443 kts | 200° |
| 2026-05-06 22:32 | 30.23684 | -88.46524 | 35990 ft | 443 kts | 200° |
| 2026-05-06 22:32 | 30.17620 | -88.47835 | 35976 ft | 443 kts | 200° |
| 2026-05-06 22:33 | 30.11558 | -88.49143 | 35973 ft | 443 kts | 200° |
| 2026-05-06 22:33 | 30.05497 | -88.50437 | 35958 ft | 443 kts | 199° |
| 2026-05-06 22:34 | 29.99428 | -88.51740 | 35949 ft | 443 kts | 199° |
| 2026-05-06 22:34 | 29.93366 | -88.53050 | 35952 ft | 443 kts | 199° |
| 2026-05-06 22:35 | 29.87346 | -88.54343 | 35955 ft | 444 kts | 199° |
| 2026-05-06 22:35 | 29.81268 | -88.55633 | 35931 ft | 444 kts | 199° |
| 2026-05-06 22:36 | 29.75195 | -88.56925 | 35938 ft | 444 kts | 199° |
| 2026-05-06 22:36 | 29.69117 | -88.58220 | 35948 ft | 444 kts | 199° |
| 2026-05-06 22:37 | 29.63040 | -88.59520 | 35955 ft | 445 kts | 199° |
| 2026-05-06 22:37 | 29.56992 | -88.60810 | 35962 ft | 445 kts | 199° |
| 2026-05-06 22:38 | 29.50901 | -88.62105 | 35945 ft | 445 kts | 198° |
| 2026-05-06 22:38 | 29.44808 | -88.63398 | 35951 ft | 445 kts | 198° |
| 2026-05-06 22:39 | 29.38716 | -88.64688 | 35952 ft | 446 kts | 198° |
| 2026-05-06 22:39 | 29.32613 | -88.65978 | 35958 ft | 446 kts | 198° |
| 2026-05-06 22:40 | 29.26516 | -88.67266 | 35963 ft | 446 kts | 198° |
| 2026-05-06 22:40 | 29.20456 | -88.68546 | 35950 ft | 446 kts | 198° |
| 2026-05-06 22:41 | 29.11304 | -88.70490 | 35956 ft | 446 kts | 198° |
| 2026-05-06 22:42 | 29.05191 | -88.71775 | 35966 ft | 446 kts | 198° |
| 2026-05-06 22:42 | 28.99083 | -88.73056 | 35966 ft | 446 kts | 198° |
| 2026-05-06 22:43 | 28.93013 | -88.74330 | 35957 ft | 446 kts | 198° |
| 2026-05-06 22:43 | 28.86908 | -88.75613 | 35955 ft | 446 kts | 198° |
| 2026-05-06 22:44 | 28.80802 | -88.76896 | 35961 ft | 446 kts | 198° |
| 2026-05-06 22:44 | 28.74697 | -88.78170 | 35963 ft | 446 kts | 198° |
| 2026-05-06 22:45 | 28.68590 | -88.79447 | 35960 ft | 446 kts | 198° |
| 2026-05-06 22:45 | 28.62490 | -88.80722 | 35954 ft | 446 kts | 197° |
| 2026-05-06 22:46 | 28.56430 | -88.81985 | 35956 ft | 446 kts | 197° |
| 2026-05-06 22:46 | 28.50327 | -88.83253 | 35962 ft | 446 kts | 197° |
| 2026-05-06 22:47 | 28.44233 | -88.84527 | 35968 ft | 445 kts | 197° |
| 2026-05-06 22:47 | 28.38134 | -88.85802 | 35963 ft | 445 kts | 197° |
| 2026-05-06 22:48 | 28.32035 | -88.87068 | 35961 ft | 445 kts | 197° |
| 2026-05-06 22:48 | 28.25988 | -88.88317 | 35969 ft | 445 kts | 197° |
| 2026-05-06 22:49 | 28.20051 | -88.90044 | 35966 ft | 440 kts | 202° |
| 2026-05-06 22:49 | 28.14160 | -88.91890 | 35966 ft | 439 kts | 202° |
| 2026-05-06 22:50 | 28.08263 | -88.93735 | 35968 ft | 440 kts | 202° |
| 2026-05-06 22:50 | 28.02362 | -88.95565 | 35948 ft | 440 kts | 201° |
| 2026-05-06 22:51 | 27.96500 | -88.97375 | 35952 ft | 440 kts | 201° |
| 2026-05-06 22:51 | 27.90589 | -88.99195 | 35954 ft | 440 kts | 201° |
| 2026-05-06 22:52 | 27.84690 | -89.01021 | 35956 ft | 440 kts | 201° |
| 2026-05-06 22:52 | 27.78782 | -89.02849 | 35957 ft | 440 kts | 201° |
| 2026-05-06 22:53 | 27.72887 | -89.04677 | 35959 ft | 440 kts | 201° |
| 2026-05-06 22:53 | 27.66979 | -89.06508 | 35962 ft | 440 kts | 201° |
| 2026-05-06 22:54 | 27.61071 | -89.08326 | 35967 ft | 440 kts | 201° |
| 2026-05-06 22:54 | 27.55205 | -89.10126 | 35961 ft | 440 kts | 201° |
| 2026-05-06 22:55 | 27.49299 | -89.11930 | 35962 ft | 440 kts | 201° |
| 2026-05-06 22:55 | 27.43388 | -89.13745 | 35945 ft | 440 kts | 201° |
| 2026-05-06 22:56 | 27.37487 | -89.15568 | 35950 ft | 440 kts | 201° |
| 2026-05-06 22:56 | 27.31568 | -89.17379 | 35953 ft | 441 kts | 201° |
| 2026-05-06 22:57 | 27.25647 | -89.19195 | 35953 ft | 441 kts | 201° |
| 2026-05-06 22:57 | 27.19769 | -89.20990 | 35956 ft | 441 kts | 201° |
| 2026-05-06 22:58 | 27.13795 | -89.22616 | 35945 ft | 447 kts | 192° |
| 2026-05-06 22:58 | 27.07500 | -89.22241 | 35946 ft | 464 kts | 172° |
| 2026-05-06 22:59 | 27.01331 | -89.19863 | 35949 ft | 470 kts | 166° |
| 2026-05-06 22:59 | 26.95173 | -89.17369 | 35949 ft | 471 kts | 166° |
| 2026-05-06 23:00 | 26.89018 | -89.14885 | 35950 ft | 471 kts | 166° |
| 2026-05-06 23:00 | 26.82882 | -89.12421 | 35959 ft | 471 kts | 166° |
| 2026-05-06 23:01 | 26.76723 | -89.09952 | 35961 ft | 470 kts | 166° |
| 2026-05-06 23:01 | 26.70566 | -89.07481 | 35966 ft | 470 kts | 166° |
| 2026-05-06 23:02 | 26.64410 | -89.05006 | 35962 ft | 470 kts | 166° |
| 2026-05-06 23:02 | 26.58254 | -89.02541 | 35965 ft | 470 kts | 166° |
| 2026-05-06 23:03 | 26.52104 | -89.00073 | 35958 ft | 469 kts | 166° |
| 2026-05-06 23:03 | 26.45999 | -88.97619 | 35965 ft | 469 kts | 166° |
| 2026-05-06 23:04 | 26.39861 | -88.95164 | 35966 ft | 469 kts | 166° |
| 2026-05-06 23:04 | 26.33719 | -88.92711 | 35966 ft | 469 kts | 166° |
| 2026-05-06 23:05 | 26.27582 | -88.90269 | 35963 ft | 468 kts | 166° |
| 2026-05-06 23:05 | 26.21440 | -88.87824 | 35958 ft | 468 kts | 166° |
| 2026-05-06 23:06 | 26.16346 | -88.85800 | 35965 ft | 468 kts | 166° |
| 2026-05-06 23:06 | 26.09213 | -88.82959 | 35956 ft | 468 kts | 165° |
| 2026-05-06 23:07 | 26.03075 | -88.80513 | 35957 ft | 469 kts | 166° |
| 2026-05-06 23:07 | 25.97924 | -88.78469 | 35959 ft | 469 kts | 166° |
| 2026-05-06 23:08 | 25.91818 | -88.76060 | 35957 ft | 469 kts | 165° |
| 2026-05-06 23:08 | 25.85676 | -88.73629 | 35965 ft | 469 kts | 165° |
| 2026-05-06 23:09 | 25.79530 | -88.71199 | 35969 ft | 469 kts | 165° |
| 2026-05-06 23:09 | 25.73387 | -88.68771 | 35969 ft | 468 kts | 165° |
| 2026-05-06 23:10 | 25.67248 | -88.66350 | 35968 ft | 468 kts | 165° |
| 2026-05-06 23:10 | 25.61107 | -88.63933 | 35960 ft | 468 kts | 165° |
| 2026-05-06 23:11 | 25.54971 | -88.61516 | 35969 ft | 468 kts | 165° |
| 2026-05-06 23:11 | 25.48875 | -88.59111 | 35971 ft | 468 kts | 165° |
| 2026-05-06 23:12 | 25.42741 | -88.56709 | 35972 ft | 468 kts | 165° |
| 2026-05-06 23:12 | 25.36604 | -88.54302 | 35972 ft | 468 kts | 165° |
| 2026-05-06 23:13 | 25.30463 | -88.51897 | 35964 ft | 468 kts | 165° |
| 2026-05-06 23:13 | 25.24336 | -88.49501 | 35970 ft | 467 kts | 165° |
| 2026-05-06 23:14 | 25.18247 | -88.47115 | 35976 ft | 467 kts | 165° |
| 2026-05-06 23:14 | 25.12121 | -88.44718 | 35971 ft | 467 kts | 165° |
| 2026-05-06 23:15 | 25.05986 | -88.42331 | 35972 ft | 468 kts | 165° |
| 2026-05-06 23:15 | 24.99852 | -88.39930 | 35966 ft | 468 kts | 165° |
| 2026-05-06 23:16 | 24.93722 | -88.37534 | 35971 ft | 467 kts | 165° |
| 2026-05-06 23:16 | 24.87631 | -88.35165 | 35977 ft | 467 kts | 165° |
| 2026-05-06 23:17 | 24.81497 | -88.32795 | 35977 ft | 467 kts | 165° |
| 2026-05-06 23:17 | 24.75372 | -88.30421 | 35981 ft | 467 kts | 165° |
| 2026-05-06 23:18 | 24.69248 | -88.28037 | 35981 ft | 467 kts | 165° |
| 2026-05-06 23:18 | 24.63127 | -88.25656 | 35979 ft | 467 kts | 165° |
| 2026-05-06 23:19 | 24.56998 | -88.23288 | 35979 ft | 467 kts | 165° |
| 2026-05-06 23:19 | 24.50910 | -88.20940 | 35978 ft | 467 kts | 165° |
| 2026-05-06 23:20 | 24.44795 | -88.18542 | 35979 ft | 467 kts | 164° |
| 2026-05-06 23:20 | 24.38685 | -88.16093 | 35979 ft | 467 kts | 164° |
| 2026-05-06 23:21 | 24.32580 | -88.13647 | 35970 ft | 467 kts | 164° |
| 2026-05-06 23:21 | 24.26471 | -88.11231 | 35975 ft | 467 kts | 164° |
| 2026-05-06 23:22 | 24.20402 | -88.08821 | 35978 ft | 467 kts | 164° |
| 2026-05-06 23:22 | 24.14297 | -88.06401 | 35973 ft | 467 kts | 164° |
| 2026-05-06 23:23 | 24.08179 | -88.03979 | 35970 ft | 467 kts | 164° |
| 2026-05-06 23:23 | 24.02059 | -88.01557 | 35964 ft | 468 kts | 163° |
| 2026-05-06 23:24 | 23.95938 | -87.99141 | 35972 ft | 468 kts | 163° |
| 2026-05-06 23:24 | 23.89816 | -87.96730 | 35975 ft | 468 kts | 163° |
| 2026-05-06 23:25 | 23.83689 | -87.94313 | 35975 ft | 468 kts | 163° |
| 2026-05-06 23:25 | 23.77605 | -87.91911 | 35974 ft | 468 kts | 163° |
| 2026-05-06 23:26 | 23.71480 | -87.89497 | 35970 ft | 468 kts | 163° |
| 2026-05-06 23:26 | 23.65356 | -87.87093 | 35975 ft | 468 kts | 163° |
| 2026-05-06 23:27 | 23.59231 | -87.84692 | 35973 ft | 468 kts | 163° |
| 2026-05-06 23:27 | 23.53083 | -87.82283 | 35952 ft | 470 kts | 163° |
| 2026-05-06 23:28 | 23.46913 | -87.79863 | 35955 ft | 472 kts | 163° |
| 2026-05-06 23:28 | 23.40727 | -87.77439 | 35949 ft | 473 kts | 163° |
| 2026-05-06 23:29 | 23.34528 | -87.75011 | 35954 ft | 474 kts | 163° |
| 2026-05-06 23:29 | 23.28365 | -87.72596 | 35961 ft | 474 kts | 163° |
| 2026-05-06 23:30 | 23.22152 | -87.70167 | 35966 ft | 474 kts | 163° |
| 2026-05-06 23:30 | 23.15931 | -87.67744 | 35966 ft | 475 kts | 163° |
| 2026-05-06 23:31 | 23.09710 | -87.65314 | 35969 ft | 476 kts | 163° |
| 2026-05-06 23:31 | 23.03476 | -87.62888 | 35967 ft | 476 kts | 163° |
| 2026-05-06 23:32 | 22.97247 | -87.60471 | 35981 ft | 475 kts | 163° |
| 2026-05-06 23:32 | 22.91022 | -87.58048 | 35974 ft | 475 kts | 163° |
| 2026-05-06 23:33 | 22.84836 | -87.55648 | 35993 ft | 475 kts | 163° |
| 2026-05-06 23:33 | 22.78606 | -87.53236 | 35983 ft | 475 kts | 163° |
| 2026-05-06 23:34 | 22.72387 | -87.50815 | 35984 ft | 475 kts | 163° |
| 2026-05-06 23:34 | 22.66156 | -87.48390 | 35982 ft | 475 kts | 163° |
| 2026-05-06 23:35 | 22.59932 | -87.45977 | 35984 ft | 475 kts | 163° |
| 2026-05-06 23:35 | 22.53711 | -87.43579 | 35974 ft | 475 kts | 163° |
| 2026-05-06 23:36 | 22.47488 | -87.41183 | 35980 ft | 475 kts | 163° |
| 2026-05-06 23:36 | 22.41300 | -87.38812 | 35980 ft | 475 kts | 163° |
| 2026-05-06 23:37 | 22.35074 | -87.36418 | 35989 ft | 474 kts | 163° |
| 2026-05-06 23:37 | 22.28859 | -87.34029 | 35979 ft | 474 kts | 163° |
| 2026-05-06 23:38 | 22.22647 | -87.31635 | 35981 ft | 474 kts | 162° |
| 2026-05-06 23:38 | 22.16436 | -87.29242 | 35971 ft | 474 kts | 162° |
| 2026-05-06 23:39 | 22.10212 | -87.26854 | 35965 ft | 474 kts | 162° |
| 2026-05-06 23:39 | 22.04037 | -87.24486 | 35973 ft | 474 kts | 162° |
| 2026-05-06 23:40 | 21.97821 | -87.22109 | 35973 ft | 474 kts | 163° |
| 2026-05-06 23:40 | 21.91606 | -87.19729 | 35974 ft | 474 kts | 163° |
| 2026-05-06 23:41 | 21.85392 | -87.17347 | 35969 ft | 474 kts | 162° |
| 2026-05-06 23:41 | 21.79177 | -87.14978 | 35963 ft | 474 kts | 163° |
| 2026-05-06 23:42 | 21.73009 | -87.12632 | 35965 ft | 473 kts | 163° |
| 2026-05-06 23:42 | 21.66796 | -87.10262 | 35952 ft | 473 kts | 162° |
| 2026-05-06 23:43 | 21.60593 | -87.07897 | 35966 ft | 473 kts | 162° |
| 2026-05-06 23:43 | 21.54377 | -87.05524 | 35972 ft | 474 kts | 162° |
| 2026-05-06 23:44 | 21.48166 | -87.03161 | 35969 ft | 474 kts | 163° |
| 2026-05-06 23:44 | 21.41950 | -87.00804 | 35973 ft | 474 kts | 162° |
| 2026-05-06 23:45 | 21.35778 | -86.98469 | 35973 ft | 474 kts | 162° |
| 2026-05-06 23:45 | 21.29556 | -86.96105 | 35976 ft | 474 kts | 163° |
| 2026-05-06 23:46 | 21.23343 | -86.93742 | 35965 ft | 474 kts | 162° |
| 2026-05-06 23:46 | 21.17117 | -86.91389 | 35976 ft | 475 kts | 163° |
| 2026-05-06 23:47 | 21.10887 | -86.89039 | 35969 ft | 475 kts | 162° |
| 2026-05-06 23:47 | 21.04612 | -86.86821 | 35985 ft | 473 kts | 169° |
| 2026-05-06 23:48 | 20.98149 | -86.86309 | 35990 ft | 468 kts | 187° |
| 2026-05-06 23:48 | 20.91669 | -86.86971 | 35987 ft | 469 kts | 187° |
| 2026-05-06 23:49 | 20.85172 | -86.87656 | 35985 ft | 469 kts | 187° |
| 2026-05-06 23:49 | 20.78677 | -86.88335 | 35984 ft | 469 kts | 188° |
| 2026-05-06 23:50 | 20.72184 | -86.88990 | 35986 ft | 469 kts | 187° |
| 2026-05-06 23:50 | 20.62488 | -86.89992 | 35993 ft | 469 kts | 188° |
| 2026-05-06 23:51 | 20.55988 | -86.90662 | 35994 ft | 469 kts | 187° |
| 2026-05-06 23:51 | 20.49476 | -86.91199 | 35995 ft | 470 kts | 181° |
| 2026-05-06 23:52 | 20.42932 | -86.91140 | 35991 ft | 471 kts | 181° |
| 2026-05-06 23:52 | 20.36381 | -86.91057 | 35984 ft | 471 kts | 180° |
| 2026-05-06 23:53 | 20.29837 | -86.90983 | 35984 ft | 471 kts | 182° |
| 2026-05-06 23:53 | 20.23328 | -86.90910 | 35985 ft | 471 kts | 180° |
| 2026-05-06 23:54 | 20.16779 | -86.90843 | 35990 ft | 471 kts | 181° |
| 2026-05-06 23:54 | 20.10226 | -86.90778 | 35992 ft | 471 kts | 181° |
| 2026-05-06 23:55 | 20.03672 | -86.90744 | 35995 ft | 471 kts | 182° |
| 2026-05-06 23:55 | 19.97125 | -86.90782 | 35997 ft | 470 kts | 181° |
| 2026-05-06 23:56 | 19.90584 | -86.90821 | 35994 ft | 470 kts | 182° |
| 2026-05-06 23:56 | 19.84082 | -86.90847 | 35996 ft | 470 kts | 181° |
| 2026-05-06 23:57 | 19.77535 | -86.90862 | 35993 ft | 470 kts | 182° |
| 2026-05-06 23:57 | 19.70992 | -86.90872 | 35992 ft | 470 kts | 181° |
| 2026-05-06 23:58 | 19.64451 | -86.90876 | 35994 ft | 470 kts | 181° |
| 2026-05-06 23:58 | 19.57920 | -86.90847 | 35994 ft | 469 kts | 181° |
| 2026-05-06 23:59 | 19.51383 | -86.90815 | 35993 ft | 469 kts | 181° |
| 2026-05-06 23:59 | 19.44862 | -86.90791 | 35991 ft | 469 kts | 180° |
| 2026-05-07 00:00 | 19.38383 | -86.90773 | 35990 ft | 469 kts | 181° |
| 2026-05-07 00:00 | 19.32918 | -86.90747 | 35987 ft | 468 kts | 181° |
| 2026-05-07 00:01 | 19.25343 | -86.90707 | 35986 ft | 468 kts | 180° |
| 2026-05-07 00:01 | 19.18828 | -86.90685 | 35982 ft | 468 kts | 180° |
| 2026-05-07 00:02 | 19.12304 | -86.90675 | 35982 ft | 468 kts | 181° |
| 2026-05-07 00:02 | 19.05788 | -86.90655 | 35983 ft | 469 kts | 180° |
| 2026-05-07 00:03 | 18.99297 | -86.90596 | 35984 ft | 469 kts | 180° |
| 2026-05-07 00:03 | 18.92768 | -86.90493 | 35984 ft | 470 kts | 180° |
| 2026-05-07 00:04 | 18.86226 | -86.90390 | 35982 ft | 470 kts | 180° |
| 2026-05-07 00:04 | 18.79692 | -86.90311 | 35989 ft | 470 kts | 180° |
| 2026-05-07 00:05 | 18.73150 | -86.90234 | 35984 ft | 470 kts | 179° |
| 2026-05-07 00:05 | 18.66609 | -86.90148 | 35975 ft | 470 kts | 180° |
| 2026-05-07 00:06 | 18.60068 | -86.90055 | 35978 ft | 470 kts | 179° |
| 2026-05-07 00:06 | 18.53574 | -86.89963 | 35967 ft | 470 kts | 180° |
| 2026-05-07 00:07 | 18.47043 | -86.89884 | 35964 ft | 470 kts | 180° |
| 2026-05-07 00:07 | 18.40505 | -86.89807 | 35966 ft | 470 kts | 179° |
| 2026-05-07 00:08 | 18.33974 | -86.89722 | 35966 ft | 470 kts | 179° |
| 2026-05-07 00:08 | 18.27434 | -86.89620 | 35966 ft | 469 kts | 179° |
| 2026-05-07 00:09 | 18.20912 | -86.89533 | 35964 ft | 469 kts | 179° |
| 2026-05-07 00:09 | 18.14380 | -86.89449 | 35963 ft | 469 kts | 179° |
| 2026-05-07 00:10 | 18.07900 | -86.89363 | 35960 ft | 469 kts | 179° |
| 2026-05-07 00:10 | 18.01374 | -86.89294 | 35958 ft | 469 kts | 179° |
| 2026-05-07 00:11 | 17.94845 | -86.89209 | 35956 ft | 469 kts | 179° |
| 2026-05-07 00:11 | 17.88322 | -86.89111 | 35958 ft | 469 kts | 179° |
| 2026-05-07 00:12 | 17.81790 | -86.89006 | 35952 ft | 469 kts | 179° |
| 2026-05-07 00:12 | 17.75256 | -86.88894 | 35955 ft | 470 kts | 179° |
| 2026-05-07 00:13 | 17.68722 | -86.88788 | 35953 ft | 469 kts | 179° |
| 2026-05-07 00:13 | 17.62190 | -86.88694 | 35953 ft | 469 kts | 179° |
| 2026-05-07 00:14 | 17.55709 | -86.88597 | 35954 ft | 469 kts | 179° |
| 2026-05-07 00:14 | 17.49183 | -86.88492 | 35956 ft | 469 kts | 179° |
| 2026-05-07 00:15 | 17.42657 | -86.88386 | 35946 ft | 469 kts | 179° |
| 2026-05-07 00:15 | 17.36131 | -86.88277 | 35948 ft | 469 kts | 179° |
| 2026-05-07 00:16 | 17.29616 | -86.88177 | 35943 ft | 468 kts | 179° |
| 2026-05-07 00:16 | 17.23096 | -86.88072 | 35944 ft | 469 kts | 179° |
| 2026-05-07 00:17 | 17.16575 | -86.87965 | 35944 ft | 469 kts | 179° |
| 2026-05-07 00:17 | 17.10058 | -86.87865 | 35938 ft | 469 kts | 179° |
| 2026-05-07 00:18 | 17.03579 | -86.87769 | 35937 ft | 468 kts | 179° |
| 2026-05-07 00:18 | 16.97071 | -86.87667 | 35933 ft | 468 kts | 179° |
| 2026-05-07 00:19 | 16.90567 | -86.87563 | 35931 ft | 467 kts | 179° |
| 2026-05-07 00:19 | 16.84061 | -86.87463 | 35931 ft | 468 kts | 179° |
| 2026-05-07 00:20 | 16.77552 | -86.87362 | 35929 ft | 468 kts | 178° |
| 2026-05-07 00:20 | 16.71039 | -86.87260 | 35933 ft | 468 kts | 179° |
| 2026-05-07 00:21 | 16.64525 | -86.87161 | 35943 ft | 468 kts | 178° |
| 2026-05-07 00:21 | 16.58056 | -86.87058 | 35937 ft | 468 kts | 179° |
| 2026-05-07 00:22 | 16.51549 | -86.86954 | 35941 ft | 468 kts | 178° |
| 2026-05-07 00:22 | 16.45040 | -86.86856 | 35932 ft | 467 kts | 178° |
| 2026-05-07 00:23 | 16.38543 | -86.86758 | 35931 ft | 467 kts | 179° |
| 2026-05-07 00:23 | 16.32048 | -86.86656 | 35925 ft | 467 kts | 178° |
| 2026-05-07 00:24 | 16.25556 | -86.86554 | 35927 ft | 466 kts | 178° |
| 2026-05-07 00:24 | 16.19115 | -86.86454 | 35926 ft | 466 kts | 178° |
| 2026-05-07 00:25 | 16.12623 | -86.86352 | 35920 ft | 466 kts | 179° |
| 2026-05-07 00:25 | 16.07233 | -86.86290 | 35919 ft | 466 kts | 179° |
| 2026-05-07 00:26 | 15.99645 | -86.86326 | 35910 ft | 467 kts | 180° |
| 2026-05-07 00:26 | 15.93144 | -86.86373 | 35908 ft | 467 kts | 180° |
| 2026-05-07 00:27 | 15.86692 | -86.86401 | 35903 ft | 467 kts | 180° |
| 2026-05-07 00:27 | 15.80196 | -86.86409 | 35902 ft | 467 kts | 179° |
| 2026-05-07 00:28 | 15.74797 | -86.86437 | 35902 ft | 467 kts | 182° |
| 2026-05-07 00:28 | 15.68387 | -86.87554 | 35904 ft | 467 kts | 191° |
| 2026-05-07 00:29 | 15.62025 | -86.88928 | 35901 ft | 467 kts | 191° |
| 2026-05-07 00:30 | 15.49285 | -86.91668 | 35909 ft | 468 kts | 191° |
| 2026-05-07 00:30 | 15.42952 | -86.93032 | 35943 ft | 468 kts | 191° |
| 2026-05-07 00:31 | 15.36579 | -86.94408 | 35946 ft | 468 kts | 191° |
| 2026-05-07 00:31 | 15.30198 | -86.95782 | 35955 ft | 468 kts | 191° |
| 2026-05-07 00:32 | 15.23822 | -86.97153 | 35958 ft | 468 kts | 191° |
| 2026-05-07 00:32 | 15.17436 | -86.98531 | 35967 ft | 468 kts | 191° |
| 2026-05-07 00:33 | 15.11062 | -86.99906 | 35962 ft | 468 kts | 191° |
| 2026-05-07 00:33 | 15.04723 | -87.01264 | 35975 ft | 468 kts | 191° |
| 2026-05-07 00:34 | 14.98344 | -87.02627 | 35977 ft | 468 kts | 191° |
| 2026-05-07 00:34 | 14.91959 | -87.03996 | 35977 ft | 469 kts | 191° |
| 2026-05-07 00:35 | 14.85566 | -87.05374 | 35987 ft | 469 kts | 191° |
| 2026-05-07 00:35 | 14.79175 | -87.06748 | 35990 ft | 470 kts | 191° |
| 2026-05-07 00:36 | 14.72770 | -87.08116 | 35993 ft | 470 kts | 191° |
| 2026-05-07 00:36 | 14.66357 | -87.09484 | 35998 ft | 470 kts | 191° |
| 2026-05-07 00:37 | 14.59988 | -87.10843 | 35996 ft | 470 kts | 191° |
| 2026-05-07 00:37 | 14.53585 | -87.12208 | 35996 ft | 470 kts | 191° |
| 2026-05-07 00:38 | 14.47176 | -87.13580 | 36019 ft | 470 kts | 191° |
| 2026-05-07 00:38 | 14.40769 | -87.14948 | 36020 ft | 470 kts | 191° |
| 2026-05-07 00:39 | 14.34351 | -87.16301 | 36018 ft | 470 kts | 191° |
| 2026-05-07 00:39 | 14.27941 | -87.17644 | 36039 ft | 470 kts | 191° |
| 2026-05-07 00:40 | 14.21535 | -87.18992 | 36044 ft | 470 kts | 191° |
| 2026-05-07 00:40 | 14.15127 | -87.20343 | 36055 ft | 470 kts | 191° |
| 2026-05-07 00:41 | 14.08752 | -87.21686 | 36051 ft | 470 kts | 191° |
| 2026-05-07 00:41 | 14.02335 | -87.22950 | 36082 ft | 470 kts | 186° |
| 2026-05-07 00:42 | 13.95815 | -87.23538 | 36078 ft | 470 kts | 184° |
| 2026-05-07 00:42 | 13.89299 | -87.24129 | 36064 ft | 470 kts | 185° |
| 2026-05-07 00:43 | 13.82793 | -87.24722 | 36074 ft | 469 kts | 185° |
| 2026-05-07 00:43 | 13.76308 | -87.25312 | 35891 ft | 466 kts | 185° |
| 2026-05-07 00:44 | 13.73090 | -87.25601 | 35643 ft | 465 kts | 184° |
| 2026-05-07 00:44 | 13.69909 | -87.25886 | 35404 ft | 465 kts | 184° |
| 2026-05-07 00:44 | 13.66687 | -87.26091 | 35171 ft | 464 kts | 178° |
| 2026-05-07 00:44 | 13.63481 | -87.25799 | 34941 ft | 462 kts | 168° |
| 2026-05-07 00:45 | 13.60387 | -87.24965 | 34668 ft | 460 kts | 159° |
| 2026-05-07 00:45 | 13.57468 | -87.23618 | 34441 ft | 460 kts | 150° |
| 2026-05-07 00:45 | 13.54800 | -87.21820 | 34215 ft | 460 kts | 143° |
| 2026-05-07 00:45 | 13.52204 | -87.19888 | 33990 ft | 460 kts | 143° |
| 2026-05-07 00:46 | 13.49609 | -87.17962 | 33748 ft | 461 kts | 143° |
| 2026-05-07 00:46 | 13.47007 | -87.16034 | 33460 ft | 462 kts | 143° |
| 2026-05-07 00:46 | 13.44397 | -87.14105 | 33206 ft | 463 kts | 143° |
| 2026-05-07 00:46 | 13.41776 | -87.12172 | 32955 ft | 464 kts | 143° |
| 2026-05-07 00:47 | 13.39158 | -87.10238 | 32708 ft | 464 kts | 143° |
| 2026-05-07 00:47 | 13.36577 | -87.08329 | 32460 ft | 464 kts | 143° |
| 2026-05-07 00:47 | 13.33950 | -87.06386 | 32208 ft | 465 kts | 143° |
| 2026-05-07 00:47 | 13.31324 | -87.04446 | 31967 ft | 465 kts | 143° |
| 2026-05-07 00:48 | 13.28694 | -87.02502 | 31734 ft | 466 kts | 142° |
| 2026-05-07 00:48 | 13.26071 | -87.00564 | 31489 ft | 466 kts | 142° |
| 2026-05-07 00:48 | 13.23440 | -86.98621 | 31210 ft | 465 kts | 142° |
| 2026-05-07 00:48 | 13.20807 | -86.96673 | 30221 ft | 469 kts | 142° |
| 2026-05-07 00:49 | 13.18170 | -86.94727 | 28938 ft | 463 kts | 142° |
| 2026-05-07 00:49 | 13.15582 | -86.92818 | 27718 ft | 454 kts | 142° |
| 2026-05-07 00:49 | 13.13039 | -86.90943 | 26557 ft | 447 kts | 141° |
| 2026-05-07 00:49 | 13.10571 | -86.89098 | 25577 ft | 441 kts | 141° |
| 2026-05-07 00:50 | 13.08101 | -86.87230 | 24788 ft | 443 kts | 140° |
| 2026-05-07 00:50 | 13.05621 | -86.85345 | 23994 ft | 443 kts | 140° |
| 2026-05-07 00:50 | 13.03143 | -86.83463 | 23111 ft | 444 kts | 140° |
| 2026-05-07 00:50 | 13.00660 | -86.81585 | 22313 ft | 441 kts | 140° |
| 2026-05-07 00:51 | 12.98199 | -86.79730 | 21587 ft | 438 kts | 140° |
| 2026-05-07 00:51 | 12.95748 | -86.77887 | 20846 ft | 435 kts | 141° |
| 2026-05-07 00:51 | 12.93316 | -86.76065 | 20121 ft | 432 kts | 141° |
| 2026-05-07 00:51 | 12.90893 | -86.74261 | 19422 ft | 428 kts | 141° |
| 2026-05-07 00:52 | 12.88486 | -86.72480 | 18730 ft | 426 kts | 141° |
| 2026-05-07 00:52 | 12.86146 | -86.70753 | 18221 ft | 412 kts | 141° |
| 2026-05-07 00:52 | 12.83854 | -86.69064 | 17582 ft | 404 kts | 141° |
| 2026-05-07 00:52 | 12.81583 | -86.67388 | 16985 ft | 400 kts | 141° |
| 2026-05-07 00:53 | 12.79345 | -86.65733 | 16420 ft | 394 kts | 141° |
| 2026-05-07 00:53 | 12.77139 | -86.64096 | 15888 ft | 389 kts | 141° |
| 2026-05-07 00:53 | 12.74960 | -86.62477 | 15321 ft | 386 kts | 141° |
| 2026-05-07 00:53 | 12.72792 | -86.60865 | 14763 ft | 383 kts | 141° |
| 2026-05-07 00:54 | 12.70644 | -86.59272 | 14190 ft | 381 kts | 141° |
| 2026-05-07 00:54 | 12.68500 | -86.57684 | 13605 ft | 380 kts | 141° |
| 2026-05-07 00:54 | 12.66364 | -86.56103 | 12964 ft | 378 kts | 141° |
| 2026-05-07 00:54 | 12.64237 | -86.54529 | 12328 ft | 375 kts | 142° |
| 2026-05-07 00:55 | 12.62161 | -86.52993 | 11689 ft | 373 kts | 142° |
| 2026-05-07 00:55 | 12.60061 | -86.51439 | 11082 ft | 370 kts | 142° |
| 2026-05-07 00:55 | 12.58039 | -86.49946 | 10928 ft | 343 kts | 141° |
| 2026-05-07 00:55 | 12.56185 | -86.48583 | 10793 ft | 315 kts | 141° |
| 2026-05-07 00:56 | 12.54463 | -86.47317 | 10501 ft | 297 kts | 141° |
| 2026-05-07 00:56 | 12.52812 | -86.46101 | 10198 ft | 289 kts | 141° |
| 2026-05-07 00:56 | 12.51186 | -86.44899 | 9981 ft | 289 kts | 141° |
| 2026-05-07 00:56 | 12.49557 | -86.43689 | 9867 ft | 289 kts | 142° |
| 2026-05-07 00:57 | 12.47924 | -86.42476 | 9752 ft | 291 kts | 142° |
| 2026-05-07 00:57 | 12.46282 | -86.41258 | 9630 ft | 291 kts | 142° |
| 2026-05-07 00:57 | 12.44641 | -86.40041 | 9492 ft | 291 kts | 142° |
| 2026-05-07 00:57 | 12.43006 | -86.38830 | 9341 ft | 291 kts | 142° |
| 2026-05-07 00:58 | 12.41366 | -86.37617 | 8816 ft | 288 kts | 142° |
| 2026-05-07 00:58 | 12.39773 | -86.36441 | 8300 ft | 285 kts | 142° |
| 2026-05-07 00:58 | 12.38158 | -86.35250 | 7802 ft | 286 kts | 141° |
| 2026-05-07 00:58 | 12.36569 | -86.34081 | 7392 ft | 274 kts | 141° |
| 2026-05-07 00:59 | 12.33678 | -86.31956 | 6926 ft | 246 kts | 141° |
| 2026-05-07 00:59 | 12.32298 | -86.30937 | 6629 ft | 244 kts | 141° |
| 2026-05-07 00:59 | 12.30876 | -86.29995 | 6326 ft | 245 kts | 150° |
| 2026-05-07 01:00 | 12.29266 | -86.29439 | 6062 ft | 244 kts | 167° |
| 2026-05-07 01:00 | 12.27593 | -86.29331 | 5934 ft | 239 kts | 180° |
| 2026-05-07 01:00 | 12.25981 | -86.29641 | 5791 ft | 233 kts | 195° |
| 2026-05-07 01:00 | 12.24550 | -86.30315 | 5653 ft | 223 kts | 208° |
| 2026-05-07 01:01 | 12.23246 | -86.31236 | 5135 ft | 236 kts | 212° |
| 2026-05-07 01:01 | 12.21872 | -86.32228 | 4535 ft | 246 kts | 212° |
| 2026-05-07 01:01 | 12.20360 | -86.33036 | 3906 ft | 247 kts | 195° |
| 2026-05-07 01:01 | 12.18705 | -86.33484 | 3337 ft | 243 kts | 182° |
| 2026-05-07 01:02 | 12.17140 | -86.33229 | 3022 ft | 222 kts | 148° |
| 2026-05-07 01:02 | 12.16089 | -86.32199 | 2798 ft | 204 kts | 118° |
| 2026-05-07 01:02 | 12.15716 | -86.30874 | 2577 ft | 194 kts | 98° |
| 2026-05-07 01:02 | 12.15571 | -86.29540 | 2341 ft | 184 kts | 98° |
| 2026-05-07 01:03 | 12.15434 | -86.28275 | 2123 ft | 172 kts | 101° |
| 2026-05-07 01:03 | 12.15308 | -86.27125 | 1905 ft | 154 kts | 101° |
| 2026-05-07 01:03 | 12.15194 | -86.26090 | 1717 ft | 139 kts | 102° |
| 2026-05-07 01:03 | 12.15089 | -86.25147 | 1529 ft | 132 kts | 98° |
| 2026-05-07 01:04 | 12.14984 | -86.24217 | 1326 ft | 132 kts | 100° |
| 2026-05-07 01:04 | 12.14878 | -86.23277 | 1180 ft | 133 kts | 100° |
| 2026-05-07 01:04 | 12.14773 | -86.22333 | 1038 ft | 133 kts | 101° |
| 2026-05-07 01:04 | 12.14670 | -86.21406 | 871 ft | 135 kts | 104° |
| 2026-05-07 01:05 | 12.14567 | -86.20441 | 731 ft | 134 kts | 100° |
| 2026-05-07 01:05 | 12.14462 | -86.19503 | 532 ft | 131 kts | 99° |
| 2026-05-07 01:05 | 12.14351 | -86.18546 | 369 ft | 135 kts | 97° |
| 2026-05-07 01:05 | 12.14244 | -86.17588 | 220 ft | 130 kts | 98° |
| 2026-05-07 01:06 | 12.14156 | -86.16806 | 199 ft | 76 kts | 97° |
| 2026-05-07 01:06 | 12.14120 | -86.16500 | 200 ft | 31 kts | 98° |
| 2026-05-07 01:06 | 12.14088 | -86.16309 | 211 ft | 23 kts | 102° |
| 2026-05-07 01:06 | 12.14098 | -86.16258 | 208 ft | 3 kts | 325° |
| 2026-05-07 01:07 | 12.14104 | -86.16281 | 204 ft | 5 kts | 271° |
| 2026-05-07 01:07 | 12.14109 | -86.16400 | 201 ft | 19 kts | 276° |
| 2026-05-07 01:07 | 12.14126 | -86.16533 | 200 ft | 18 kts | 279° |
| 2026-05-07 01:07 | 12.14210 | -86.16612 | 200 ft | 16 kts | 333° |
| 2026-05-07 01:08 | 12.14277 | -86.16685 | 205 ft | 14 kts | 282° |
| 2026-05-07 01:08 | 12.14290 | -86.16784 | 200 ft | 14 kts | 276° |
| 2026-05-07 01:08 | 12.14301 | -86.16877 | 200 ft | 13 kts | 276° |
| 2026-05-07 01:08 | 12.14310 | -86.16963 | 208 ft | 12 kts | 276° |
| 2026-05-07 01:09 | 12.14318 | -86.17043 | 200 ft | 11 kts | 276° |
| 2026-05-07 01:09 | 12.14354 | -86.17056 | 212 ft | 5 kts | 6° |
| 2026-05-07 01:09 | 12.14387 | -86.17052 | 202 ft | 4 kts | 8° |
| 2026-05-07 01:09 | 12.14397 | -86.17051 | 200 ft | 0 kts | 7° |